Time;durP1;ratioP1;P1;durP2;ratioP2;P2;SDS_P1;SDS_P2;PMS_P1;PMS_P2;Temp;Humidity;BMP_temperature;BMP_pressure;BME280_temperature;BME280_humidity;BME280_pressure;Samples;Min_cycle;Max_cycle;Signal;HPM_P1;HPM_P2
2023/12/21 00:02:18;;;;;;;26.35;15.10;;;5.70;99.90;;;;;;4954197;28;20519;-74
2023/12/21 00:04:43;;;;;;;26.33;16.52;;;5.70;99.90;;;;;;4954158;29;20062;-74
2023/12/21 00:07:09;;;;;;;26.02;15.50;;;5.70;99.90;;;;;;4954051;29;20043;-74
2023/12/21 00:09:35;;;;;;;27.05;16.13;;;5.80;99.90;;;;;;4953995;29;20035;-75
2023/12/21 00:12:02;;;;;;;30.35;17.95;;;5.80;99.90;;;;;;4954933;28;20179;-75
2023/12/21 00:14:30;;;;;;;29.30;17.88;;;5.70;99.90;;;;;;4939270;29;20098;-75
2023/12/21 00:16:57;;;;;;;29.77;18.17;;;5.80;99.90;;;;;;4954515;28;20024;-74
2023/12/21 00:19:23;;;;;;;29.45;16.55;;;5.70;99.90;;;;;;4953429;29;20038;-73
2023/12/21 00:21:49;;;;;;;28.00;17.58;;;5.70;99.90;;;;;;4954343;28;20027;-74
2023/12/21 00:24:14;;;;;;;28.80;17.08;;;5.70;99.90;;;;;;4953569;29;20055;-74
2023/12/21 00:26:40;;;;;;;33.47;21.80;;;5.60;99.90;;;;;;4936394;29;20419;-77
2023/12/21 00:29:07;;;;;;;31.77;19.15;;;5.60;99.90;;;;;;4953736;28;20435;-74
2023/12/21 00:31:33;;;;;;;32.65;19.80;;;5.60;99.90;;;;;;4953906;29;20046;-76
2023/12/21 00:33:59;;;;;;;28.73;17.75;;;5.60;99.90;;;;;;4953774;29;20057;-74
2023/12/21 00:36:27;;;;;;;29.10;18.25;;;5.60;99.90;;;;;;4953870;28;20392;-74
2023/12/21 00:38:53;;;;;;;29.20;17.60;;;5.60;99.90;;;;;;4953419;29;20027;-75
2023/12/21 00:41:19;;;;;;;28.13;18.25;;;5.60;99.90;;;;;;4953619;29;20131;-75
2023/12/21 00:43:45;;;;;;;27.83;16.85;;;5.60;99.90;;;;;;4953622;29;20126;-75
2023/12/21 00:46:11;;;;;;;27.92;17.13;;;5.60;99.90;;;;;;4953643;28;20031;-75
2023/12/21 00:48:37;;;;;;;31.95;21.35;;;5.60;99.90;;;;;;4953610;28;20038;-74
2023/12/21 00:51:03;;;;;;;32.80;19.52;;;5.60;99.90;;;;;;4953702;29;20388;-74
2023/12/21 00:53:29;;;;;;;34.05;21.25;;;5.60;99.90;;;;;;4953758;28;20035;-73
2023/12/21 00:55:55;;;;;;;28.90;19.38;;;5.70;99.90;;;;;;4953526;29;20034;-75
2023/12/21 00:58:21;;;;;;;29.23;17.85;;;5.70;99.90;;;;;;4953407;28;20039;-74
2023/12/21 01:00:47;;;;;;;30.10;19.38;;;5.70;99.90;;;;;;4953738;29;20020;-74
2023/12/21 01:03:13;;;;;;;27.88;18.77;;;5.70;99.90;;;;;;4953436;29;20114;-75
2023/12/21 01:05:39;;;;;;;29.00;17.83;;;5.70;99.90;;;;;;4953307;29;20062;-75
2023/12/21 01:08:06;;;;;;;30.23;18.92;;;5.70;99.90;;;;;;4953351;29;20064;-74
2023/12/21 01:10:33;;;;;;;27.83;17.42;;;5.70;99.90;;;;;;4953528;28;20475;-74
2023/12/21 01:12:59;;;;;;;26.65;17.13;;;5.70;99.90;;;;;;4953402;28;20115;-74
2023/12/21 01:15:26;;;;;;;26.80;17.27;;;5.70;99.90;;;;;;4953513;28;20031;-74
2023/12/21 01:17:52;;;;;;;28.20;17.70;;;5.70;99.90;;;;;;4953205;29;20039;-74
2023/12/21 01:20:18;;;;;;;24.98;17.58;;;5.70;99.90;;;;;;4953561;28;20467;-74
2023/12/21 01:22:43;;;;;;;28.05;17.85;;;5.60;99.90;;;;;;4953205;29;20031;-75
2023/12/21 01:25:09;;;;;;;27.88;17.83;;;5.60;99.90;;;;;;4953430;29;20070;-75
2023/12/21 01:27:35;;;;;;;28.42;17.73;;;5.60;99.90;;;;;;4936702;29;20126;-74
2023/12/21 01:30:02;;;;;;;28.50;17.17;;;5.60;99.90;;;;;;4957250;28;20110;-75
2023/12/21 01:32:28;;;;;;;32.35;18.73;;;5.60;99.90;;;;;;4956755;29;20118;-75
2023/12/21 01:34:53;;;;;;;26.23;15.70;;;5.50;99.90;;;;;;4956467;28;20114;-74
2023/12/21 01:37:19;;;;;;;25.73;15.77;;;5.50;99.90;;;;;;4939801;29;20097;-74
2023/12/21 01:39:45;;;;;;;28.38;17.17;;;5.40;99.90;;;;;;4956537;29;20039;-74
2023/12/21 01:42:11;;;;;;;27.65;16.52;;;5.50;99.90;;;;;;4956636;28;20461;-74
2023/12/21 01:44:37;;;;;;;26.85;16.17;;;5.40;99.90;;;;;;4956695;29;20031;-74
2023/12/21 01:47:03;;;;;;;27.25;17.67;;;5.40;99.90;;;;;;4956675;28;20035;-75
2023/12/21 01:49:30;;;;;;;29.75;17.02;;;5.40;99.90;;;;;;4956655;28;20030;-75
2023/12/21 01:51:57;;;;;;;24.23;16.52;;;5.40;99.90;;;;;;4956528;29;20058;-75
2023/12/21 01:54:23;;;;;;;29.40;15.40;;;5.30;99.90;;;;;;4956449;28;20034;-74
2023/12/21 01:56:49;;;;;;;24.85;15.07;;;5.30;99.90;;;;;;4956482;29;20043;-75
2023/12/21 01:59:15;;;;;;;24.88;15.20;;;5.30;99.90;;;;;;4956328;28;20030;-74
2023/12/21 02:01:41;;;;;;;24.48;14.90;;;5.20;99.90;;;;;;4956099;28;20391;-75
2023/12/21 02:04:08;;;;;;;24.15;15.15;;;5.30;99.90;;;;;;4956409;28;20505;-74
2023/12/21 02:06:34;;;;;;;27.40;15.32;;;5.20;99.90;;;;;;4955966;28;20122;-74
2023/12/21 02:09:00;;;;;;;27.95;16.60;;;5.30;99.90;;;;;;4939252;29;20070;-75
2023/12/21 02:11:26;;;;;;;25.77;17.60;;;5.30;99.90;;;;;;4955951;28;20038;-74
2023/12/21 02:13:52;;;;;;;25.13;16.13;;;5.20;99.90;;;;;;4956280;29;20023;-74
2023/12/21 02:16:32;;;;;;;27.67;16.58;;;5.30;99.90;;;;;;4955564;28;20065;-73
2023/12/21 02:18:58;;;;;;;36.50;20.77;;;5.30;99.90;;;;;;4938880;29;20102;-75
2023/12/21 02:21:25;;;;;;;33.70;20.77;;;5.30;99.90;;;;;;4956158;29;20118;-75
2023/12/21 02:23:53;;;;;;;37.60;23.55;;;5.40;99.90;;;;;;4938764;29;20040;-75
2023/12/21 02:26:19;;;;;;;37.28;22.35;;;5.40;99.90;;;;;;4955586;28;20368;-73
2023/12/21 02:28:45;;;;;;;34.53;23.02;;;5.40;99.90;;;;;;4938716;29;20040;-74
2023/12/21 02:31:11;;;;;;;43.22;25.98;;;5.30;99.90;;;;;;4938283;29;20391;-75
2023/12/21 02:33:37;;;;;;;37.55;24.05;;;5.30;99.90;;;;;;4955512;29;20031;-75
2023/12/21 02:36:03;;;;;;;38.10;24.95;;;5.30;99.90;;;;;;4955628;28;20565;-72
2023/12/21 02:38:29;;;;;;;42.25;27.52;;;5.30;99.90;;;;;;4955618;28;20078;-72
2023/12/21 02:40:55;;;;;;;53.55;32.55;;;5.30;99.90;;;;;;4937327;29;20035;-73
2023/12/21 02:43:21;;;;;;;51.35;31.88;;;5.30;99.90;;;;;;4938078;29;20039;-75
2023/12/21 02:45:47;;;;;;;49.47;32.33;;;5.30;99.90;;;;;;4938027;29;20023;-74
2023/12/21 02:48:12;;;;;;;45.15;29.95;;;5.30;99.90;;;;;;4946237;28;20089;-75
2023/12/21 02:50:39;;;;;;;45.75;27.75;;;5.30;99.90;;;;;;4966930;28;20027;-74
2023/12/21 02:53:05;;;;;;;41.50;26.20;;;5.30;99.90;;;;;;4955471;29;20039;-73
2023/12/21 02:55:31;;;;;;;42.92;26.00;;;5.40;99.90;;;;;;4955150;28;20023;-74
2023/12/21 02:57:57;;;;;;;41.53;26.88;;;5.30;99.90;;;;;;4955275;29;20031;-73
2023/12/21 03:00:23;;;;;;;48.97;29.88;;;5.40;99.90;;;;;;4954990;29;20114;-73
2023/12/21 03:02:48;;;;;;;48.65;31.98;;;5.40;99.90;;;;;;4955611;28;20431;-74
2023/12/21 03:05:14;;;;;;;43.63;28.63;;;5.30;99.90;;;;;;4954661;28;20121;-73
2023/12/21 03:07:40;;;;;;;46.15;28.33;;;5.20;99.90;;;;;;4954000;29;20114;-75
2023/12/21 03:10:06;;;;;;;47.97;30.70;;;5.20;99.90;;;;;;4963740;28;20042;-73
2023/12/21 03:12:32;;;;;;;47.28;29.92;;;5.20;99.90;;;;;;4963188;28;20035;-73
2023/12/21 03:14:58;;;;;;;38.38;26.35;;;5.30;99.90;;;;;;4954984;28;20023;-74
2023/12/21 03:17:24;;;;;;;38.33;25.48;;;5.20;99.90;;;;;;4937519;29;20047;-73
2023/12/21 03:19:50;;;;;;;40.53;26.02;;;5.10;99.90;;;;;;4954842;29;20540;-75
2023/12/21 03:22:16;;;;;;;38.50;26.10;;;5.20;99.90;;;;;;4954879;29;20067;-75
2023/12/21 03:24:42;;;;;;;38.50;26.77;;;5.10;99.90;;;;;;4937697;29;20081;-76
2023/12/21 03:27:11;;;;;;;44.88;28.48;;;5.20;99.90;;;;;;4954621;29;20395;-75
2023/12/21 03:29:36;;;;;;;42.10;27.73;;;5.30;99.90;;;;;;4954767;28;20035;-75
2023/12/21 03:32:02;;;;;;;48.13;32.13;;;5.30;99.90;;;;;;4954647;29;20669;-75
2023/12/21 03:34:28;;;;;;;44.78;30.25;;;5.30;99.90;;;;;;4936849;29;20487;-72
2023/12/21 03:36:54;;;;;;;51.58;33.75;;;5.30;99.90;;;;;;4954795;29;20031;-75
2023/12/21 03:39:20;;;;;;;50.40;32.85;;;5.30;99.90;;;;;;4954432;29;20075;-73
2023/12/21 03:41:46;;;;;;;52.40;32.53;;;5.40;99.90;;;;;;4937468;29;20031;-75
2023/12/21 03:44:12;;;;;;;44.58;27.48;;;5.40;99.90;;;;;;4936610;29;20074;-73
2023/12/21 03:46:38;;;;;;;36.85;23.23;;;5.40;99.90;;;;;;4954694;28;20035;-75
2023/12/21 03:49:03;;;;;;;35.78;22.17;;;5.40;99.90;;;;;;4954281;29;20018;-75
2023/12/21 03:51:29;;;;;;;35.38;22.92;;;5.40;99.90;;;;;;4954347;28;20122;-74
2023/12/21 03:53:55;;;;;;;31.80;21.13;;;5.40;99.90;;;;;;4936942;29;20023;-76
2023/12/21 03:56:21;;;;;;;33.63;21.77;;;5.50;99.90;;;;;;4954230;29;20078;-73
2023/12/21 03:58:47;;;;;;;39.35;23.23;;;5.50;99.90;;;;;;4954176;28;20023;-73
2023/12/21 04:01:13;;;;;;;31.92;20.25;;;5.50;99.90;;;;;;4954199;29;20077;-72
2023/12/21 04:03:38;;;;;;;29.83;19.85;;;5.60;99.90;;;;;;4954129;28;20403;-73
2023/12/21 04:06:05;;;;;;;32.05;21.20;;;5.60;99.90;;;;;;4921183;29;20031;-74
2023/12/21 04:08:30;;;;;;;30.30;19.38;;;5.60;99.90;;;;;;4954278;29;20027;-74
2023/12/21 04:10:56;;;;;;;32.38;21.63;;;5.60;99.90;;;;;;4954040;29;20066;-73
2023/12/21 04:13:22;;;;;;;29.95;20.83;;;5.70;99.90;;;;;;4936745;29;20095;-73
2023/12/21 04:15:48;;;;;;;27.73;18.85;;;5.60;99.90;;;;;;4953748;29;20035;-75
2023/12/21 04:18:14;;;;;;;29.73;18.33;;;5.60;99.90;;;;;;4954050;29;20015;-75
2023/12/21 04:20:40;;;;;;;28.05;17.20;;;5.60;99.90;;;;;;4954307;28;20361;-74
2023/12/21 04:23:06;;;;;;;26.65;16.38;;;5.60;99.90;;;;;;4954222;29;20022;-74
2023/12/21 04:25:32;;;;;;;24.83;15.18;;;5.60;99.90;;;;;;4953554;28;20113;-74
2023/12/21 04:27:58;;;;;;;22.73;14.40;;;5.60;99.90;;;;;;4953867;28;20468;-74
2023/12/21 04:30:23;;;;;;;21.50;12.98;;;5.50;99.90;;;;;;4953712;28;20059;-74
2023/12/21 04:32:49;;;;;;;29.17;16.48;;;5.60;99.90;;;;;;4953757;29;20058;-74
2023/12/21 04:35:15;;;;;;;24.50;16.75;;;5.60;99.90;;;;;;4953823;28;20071;-74
2023/12/21 04:37:42;;;;;;;25.98;16.25;;;5.60;99.90;;;;;;4936076;29;20566;-74
2023/12/21 04:40:09;;;;;;;21.30;13.90;;;5.60;99.90;;;;;;4954114;29;20027;-75
2023/12/21 04:42:35;;;;;;;20.75;12.40;;;5.60;99.90;;;;;;4953664;28;20027;-75
2023/12/21 04:45:01;;;;;;;23.02;14.27;;;5.60;99.90;;;;;;4954017;29;20027;-74
2023/12/21 04:47:30;;;;;;;35.50;23.58;;;5.60;99.90;;;;;;4945327;28;20035;-76
2023/12/21 04:49:56;;;;;;;36.60;23.45;;;5.60;99.90;;;;;;4954231;28;20099;-75
2023/12/21 04:52:21;;;;;;;38.13;23.70;;;5.50;99.90;;;;;;4940936;28;20126;-75
2023/12/21 04:54:47;;;;;;;39.75;22.05;;;5.50;99.90;;;;;;4943187;29;20452;-77
2023/12/21 04:57:13;;;;;;;33.90;20.50;;;5.50;99.90;;;;;;4934564;29;20063;-74
2023/12/21 04:59:42;;;;;;;32.92;20.45;;;5.50;99.90;;;;;;4953926;29;20090;-74
2023/12/21 05:02:08;;;;;;;57.80;35.92;;;5.50;99.90;;;;;;4953924;28;20380;-74
2023/12/21 05:04:34;;;;;;;72.63;46.67;;;5.40;99.90;;;;;;4957680;29;20122;-74
2023/12/21 05:07:01;;;;;;;60.03;39.15;;;5.50;99.90;;;;;;4957446;28;20508;-72
2023/12/21 05:09:27;;;;;;;61.03;38.38;;;5.40;99.90;;;;;;4957525;28;20110;-74
2023/12/21 05:11:53;;;;;;;58.13;37.35;;;5.30;99.90;;;;;;4957469;29;20174;-76
2023/12/21 05:14:19;;;;;;;58.60;39.33;;;5.30;99.90;;;;;;4956991;28;20382;-75
2023/12/21 05:16:45;;;;;;;60.75;37.55;;;5.30;99.90;;;;;;4939906;29;20032;-75
2023/12/21 05:19:11;;;;;;;66.07;44.50;;;5.30;99.90;;;;;;4938009;29;20034;-76
2023/12/21 05:21:36;;;;;;;48.97;35.42;;;5.30;99.90;;;;;;4943845;28;20101;-76
2023/12/21 05:24:02;;;;;;;62.40;41.65;;;5.20;99.90;;;;;;4957463;28;20027;-75
2023/12/21 05:26:28;;;;;;;66.95;38.65;;;5.20;99.90;;;;;;4956791;28;20152;-74
2023/12/21 05:28:57;;;;;;;54.65;36.92;;;5.10;99.90;;;;;;4957192;28;20387;-75
2023/12/21 05:31:24;;;;;;;59.15;37.17;;;5.00;99.90;;;;;;4939419;29;20031;-76
2023/12/21 05:33:53;;;;;;;59.17;35.78;;;5.00;99.90;;;;;;4956860;28;20023;-76
2023/12/21 05:36:21;;;;;;;86.13;46.78;;;5.00;99.90;;;;;;4936019;29;20147;-75
2023/12/21 05:38:47;;;;;;;93.70;54.80;;;4.90;99.90;;;;;;4937739;29;20051;-75
2023/12/21 05:41:13;;;;;;;117.82;63.63;;;4.90;99.90;;;;;;4937552;29;20032;-77
2023/12/21 05:43:39;;;;;;;183.88;106.15;;;4.90;99.90;;;;;;4937712;29;20440;-75
2023/12/21 05:46:04;;;;;;;208.45;110.85;;;4.90;99.90;;;;;;4937533;29;20040;-77
2023/12/21 05:48:32;;;;;;;141.02;78.22;;;4.90;99.90;;;;;;4937517;29;20091;-75
2023/12/21 05:50:57;;;;;;;161.77;95.32;;;4.90;99.90;;;;;;4937452;29;20396;-75
2023/12/21 05:53:23;;;;;;;126.22;73.75;;;4.80;99.90;;;;;;4937111;29;20024;-75
2023/12/21 05:55:49;;;;;;;131.57;81.80;;;4.90;99.90;;;;;;4936093;29;20068;-75
2023/12/21 05:58:15;;;;;;;137.80;84.70;;;4.90;99.90;;;;;;4937128;29;20039;-75
2023/12/21 06:00:41;;;;;;;127.60;76.10;;;4.90;99.90;;;;;;4937227;29;20028;-76
2023/12/21 06:03:07;;;;;;;110.88;62.03;;;4.80;99.90;;;;;;4936859;29;20443;-76
2023/12/21 06:05:36;;;;;;;132.38;76.20;;;4.80;99.90;;;;;;4937334;29;20044;-76
2023/12/21 06:08:02;;;;;;;138.70;84.18;;;4.70;99.90;;;;;;4936987;29;20058;-75
2023/12/21 06:10:28;;;;;;;110.25;62.22;;;4.70;99.90;;;;;;4937063;29;20016;-77
2023/12/21 06:12:54;;;;;;;119.85;68.38;;;4.60;99.90;;;;;;4937067;29;20028;-74
2023/12/21 06:15:20;;;;;;;106.65;62.45;;;4.70;99.90;;;;;;4935788;29;20020;-74
2023/12/21 06:17:45;;;;;;;124.65;78.07;;;4.80;99.90;;;;;;4936952;29;20039;-73
2023/12/21 06:20:11;;;;;;;105.85;69.75;;;4.80;99.90;;;;;;4936843;29;20122;-77
2023/12/21 06:22:37;;;;;;;105.07;65.43;;;4.90;99.90;;;;;;4936813;29;20408;-76
2023/12/21 06:25:03;;;;;;;104.72;60.72;;;4.80;99.90;;;;;;4936866;29;20027;-75
2023/12/21 06:27:29;;;;;;;104.18;60.35;;;4.80;99.90;;;;;;4936894;29;20050;-78
2023/12/21 06:29:55;;;;;;;89.03;53.65;;;4.80;99.90;;;;;;4936783;29;20019;-76
2023/12/21 06:32:22;;;;;;;96.45;63.50;;;4.80;99.90;;;;;;4936765;29;20031;-75
2023/12/21 06:34:48;;;;;;;102.85;60.67;;;4.80;99.90;;;;;;4941018;29;20102;-76
2023/12/21 06:37:14;;;;;;;83.30;51.58;;;4.90;99.90;;;;;;4955425;28;20028;-77
2023/12/21 06:39:40;;;;;;;88.82;52.83;;;4.90;99.90;;;;;;4956039;28;20353;-76
2023/12/21 06:42:06;;;;;;;95.63;60.28;;;4.90;99.90;;;;;;4955328;28;20058;-76
2023/12/21 06:44:32;;;;;;;99.18;60.28;;;4.90;99.90;;;;;;4938503;29;20587;-76
2023/12/21 06:46:58;;;;;;;104.88;64.38;;;5.00;99.90;;;;;;4955129;29;20039;-76
2023/12/21 06:49:24;;;;;;;100.70;65.32;;;5.00;99.90;;;;;;4955777;28;20031;-76
2023/12/21 06:51:50;;;;;;;109.45;66.95;;;5.00;99.90;;;;;;4955262;28;20031;-76
2023/12/21 06:54:18;;;;;;;90.88;55.95;;;5.10;99.90;;;;;;4955377;29;20015;-76
2023/12/21 06:56:44;;;;;;;109.07;62.95;;;5.20;99.90;;;;;;4937740;29;20043;-77
2023/12/21 06:59:10;;;;;;;92.57;62.85;;;5.20;99.90;;;;;;4955644;29;20555;-75
2023/12/21 07:01:36;;;;;;;109.13;67.85;;;5.10;99.90;;;;;;4954946;29;20530;-76
2023/12/21 07:04:01;;;;;;;101.47;64.88;;;5.10;99.90;;;;;;4954667;28;20256;-76
2023/12/21 07:06:27;;;;;;;103.65;66.32;;;5.10;99.90;;;;;;4955200;28;20388;-77
2023/12/21 07:08:54;;;;;;;137.02;80.88;;;5.10;99.90;;;;;;4954957;29;20053;-74
2023/12/21 07:11:20;;;;;;;117.07;71.30;;;5.00;99.90;;;;;;4955080;29;20031;-77
2023/12/21 07:13:46;;;;;;;113.65;68.13;;;5.00;99.90;;;;;;4954858;29;20027;-77
2023/12/21 07:16:12;;;;;;;124.65;78.25;;;5.00;99.90;;;;;;4955007;29;20039;-76
2023/12/21 07:18:38;;;;;;;134.38;88.88;;;5.10;99.90;;;;;;4954793;29;20038;-75
2023/12/21 07:21:05;;;;;;;129.90;79.72;;;5.10;99.90;;;;;;4954835;29;20387;-75
2023/12/21 07:23:30;;;;;;;119.28;82.10;;;5.20;99.90;;;;;;4955118;28;20033;-76
2023/12/21 07:25:57;;;;;;;116.38;76.75;;;5.20;99.90;;;;;;4954496;28;20039;-75
2023/12/21 07:28:28;;;;;;;116.55;75.25;;;5.20;99.90;;;;;;4954783;29;20036;-75
2023/12/21 07:30:54;;;;;;;150.15;98.75;;;5.30;99.90;;;;;;4954497;29;20424;-75
2023/12/21 07:33:20;;;;;;;202.63;123.72;;;5.30;99.90;;;;;;4954814;28;20379;-76
2023/12/21 07:35:46;;;;;;;204.63;125.80;;;5.50;99.90;;;;;;4954260;28;20043;-75
2023/12/21 07:38:12;;;;;;;163.52;108.50;;;5.50;99.90;;;;;;4954819;28;20051;-74
2023/12/21 07:40:38;;;;;;;145.20;90.40;;;5.70;99.90;;;;;;4954288;29;20064;-74
2023/12/21 07:43:04;;;;;;;144.95;90.40;;;5.80;99.90;;;;;;4954748;28;20066;-74
2023/12/21 07:45:30;;;;;;;122.82;79.85;;;6.00;99.90;;;;;;4954077;29;20039;-75
2023/12/21 07:47:55;;;;;;;128.45;82.82;;;6.10;99.90;;;;;;4954390;29;20042;-75
2023/12/21 07:50:22;;;;;;;100.88;61.67;;;6.30;99.90;;;;;;4953803;29;20114;-75
2023/12/21 07:52:48;;;;;;;106.05;66.20;;;6.40;99.90;;;;;;4953941;29;20077;-75
2023/12/21 07:55:14;;;;;;;86.60;54.80;;;6.50;99.90;;;;;;4954537;29;20019;-75
2023/12/21 07:57:40;;;;;;;86.50;51.10;;;6.50;99.90;;;;;;4954306;29;20387;-75
2023/12/21 08:00:09;;;;;;;74.05;50.40;;;6.50;99.90;;;;;;4954221;29;20034;-75
2023/12/21 08:02:40;;;;;;;79.20;47.53;;;6.50;99.90;;;;;;4954170;29;20023;-75
2023/12/21 08:05:06;;;;;;;69.22;48.30;;;6.50;99.90;;;;;;4954074;29;20027;-75
2023/12/21 08:07:32;;;;;;;90.68;53.00;;;6.50;99.90;;;;;;4953945;29;20043;-75
2023/12/21 08:10:01;;;;;;;83.65;54.22;;;6.50;99.90;;;;;;4954181;28;20026;-75
2023/12/21 08:12:27;;;;;;;88.72;57.05;;;6.40;99.90;;;;;;4953645;29;20475;-76
2023/12/21 08:14:53;;;;;;;86.05;51.83;;;6.40;99.90;;;;;;4953917;28;20027;-74
2023/12/21 08:17:19;;;;;;;83.30;50.22;;;6.40;99.90;;;;;;4953956;29;20033;-76
2023/12/21 08:19:45;;;;;;;74.30;44.85;;;6.40;99.90;;;;;;4953645;29;20023;-75
2023/12/21 08:22:11;;;;;;;79.50;46.63;;;6.40;99.90;;;;;;4954294;29;20031;-75
2023/12/21 08:24:37;;;;;;;76.32;47.78;;;6.40;99.90;;;;;;4953571;28;20027;-75
2023/12/21 08:27:05;;;;;;;84.88;50.63;;;6.50;99.90;;;;;;4954169;28;20059;-75
2023/12/21 08:29:31;;;;;;;70.93;45.70;;;6.60;99.90;;;;;;4953783;28;20030;-74
2023/12/21 08:31:57;;;;;;;63.95;43.35;;;6.70;99.90;;;;;;4954156;29;20027;-77
2023/12/21 08:34:23;;;;;;;58.17;38.33;;;6.80;99.90;;;;;;4953550;28;20090;-78
2023/12/21 08:36:50;;;;;;;60.90;37.55;;;7.00;99.90;;;;;;4933160;29;20056;-77
2023/12/21 08:39:16;;;;;;;59.15;39.72;;;7.20;99.90;;;;;;4938187;29;20024;-74
2023/12/21 08:41:42;;;;;;;63.38;39.00;;;7.40;99.90;;;;;;4937407;29;20031;-74
2023/12/21 08:44:10;;;;;;;52.17;35.22;;;7.50;99.90;;;;;;4938378;29;20059;-78
2023/12/21 08:46:40;;;;;;;56.03;37.00;;;7.70;99.90;;;;;;4938761;29;20094;-78
2023/12/21 08:49:12;;;;;;;48.25;30.83;;;7.80;99.90;;;;;;4938419;29;20023;-76
2023/12/21 08:51:40;;;;;;;50.78;34.70;;;8.00;99.90;;;;;;4938388;29;20028;-74
2023/12/21 08:54:06;;;;;;;43.65;29.67;;;8.10;99.90;;;;;;4938558;29;20027;-76
2023/12/21 08:56:33;;;;;;;40.50;25.58;;;8.20;99.90;;;;;;4938286;29;20039;-78
2023/12/21 08:58:59;;;;;;;38.20;23.95;;;8.30;99.90;;;;;;4938129;29;20023;-74
2023/12/21 09:01:25;;;;;;;32.85;19.45;;;8.40;99.90;;;;;;4938259;29;20068;-75
2023/12/21 09:03:50;;;;;;;36.45;20.95;;;8.50;99.90;;;;;;4925597;29;20062;-77
2023/12/21 09:06:17;;;;;;;36.63;20.90;;;8.60;99.90;;;;;;4938213;29;20035;-77
2023/12/21 09:08:42;;;;;;;38.63;22.40;;;8.70;99.90;;;;;;4938055;29;20039;-76
2023/12/21 09:11:08;;;;;;;32.80;21.33;;;8.80;99.90;;;;;;4938019;29;20107;-74
2023/12/21 09:13:34;;;;;;;32.38;18.77;;;8.90;99.90;;;;;;4937786;29;20028;-75
2023/12/21 09:16:00;;;;;;;35.30;19.45;;;9.00;99.90;;;;;;4938240;29;20496;-75
2023/12/21 09:18:26;;;;;;;28.08;18.55;;;9.20;99.90;;;;;;4937811;29;20114;-75
2023/12/21 09:20:52;;;;;;;29.88;19.05;;;9.30;99.90;;;;;;4938130;29;20357;-76
2023/12/21 09:23:18;;;;;;;36.92;22.63;;;9.40;99.00;;;;;;4925239;29;20027;-75
2023/12/21 09:25:44;;;;;;;35.88;22.80;;;9.50;98.70;;;;;;4936602;29;20036;-76
2023/12/21 09:28:09;;;;;;;24.25;14.48;;;9.60;97.70;;;;;;4925363;29;20065;-75
2023/12/21 09:30:36;;;;;;;25.60;15.35;;;9.70;97.10;;;;;;4937597;29;20114;-75
2023/12/21 09:33:03;;;;;;;19.00;10.35;;;9.80;97.00;;;;;;4925529;29;20039;-76
2023/12/21 09:35:28;;;;;;;21.90;10.88;;;9.80;96.40;;;;;;4945519;29;20463;-75
2023/12/21 09:37:58;;;;;;;22.02;11.65;;;9.90;96.10;;;;;;4956814;28;20028;-75
2023/12/21 09:40:25;;;;;;;19.77;11.00;;;10.00;96.30;;;;;;4955671;28;20024;-75
2023/12/21 09:42:57;;;;;;;22.95;13.63;;;10.00;96.00;;;;;;4956915;28;20479;-75
2023/12/21 09:45:24;;;;;;;29.25;16.10;;;10.10;95.50;;;;;;4956324;28;20121;-74
2023/12/21 09:47:52;;;;;;;27.00;15.85;;;10.20;98.00;;;;;;4956437;29;20444;-75
2023/12/21 09:50:19;;;;;;;27.35;16.00;;;10.30;96.10;;;;;;4956389;29;20028;-75
2023/12/21 09:52:48;;;;;;;23.52;10.43;;;10.50;97.40;;;;;;4956484;29;20435;-74
2023/12/21 09:55:16;;;;;;;15.13;8.55;;;10.50;98.90;;;;;;4956427;29;20475;-77
2023/12/21 09:57:42;;;;;;;16.00;8.20;;;10.50;97.70;;;;;;4956278;29;20023;-74
2023/12/21 10:00:09;;;;;;;15.18;7.78;;;10.50;95.20;;;;;;4956191;29;20925;-79
2023/12/21 10:02:38;;;;;;;10.43;5.03;;;10.50;94.40;;;;;;4939516;29;20023;-76
2023/12/21 10:05:04;;;;;;;11.75;5.55;;;10.50;93.40;;;;;;4956085;28;20536;-76
2023/12/21 10:07:30;;;;;;;10.93;5.30;;;10.50;92.70;;;;;;4956280;28;20050;-75
2023/12/21 10:09:59;;;;;;;14.40;6.82;;;10.50;93.10;;;;;;4956148;29;20078;-76
2023/12/21 10:12:25;;;;;;;14.43;7.15;;;10.60;92.60;;;;;;4956350;29;20031;-74
2023/12/21 10:15:03;;;;;;;12.75;5.45;;;10.60;92.60;;;;;;4955895;29;20073;-76
2023/12/21 10:17:32;;;;;;;12.05;5.60;;;10.60;91.40;;;;;;4956231;29;20032;-76
2023/12/21 10:20:00;;;;;;;10.07;4.80;;;10.60;90.50;;;;;;4938443;29;20023;-75
2023/12/21 10:22:26;;;;;;;12.43;7.03;;;10.70;90.10;;;;;;4955797;29;20392;-73
2023/12/21 10:24:54;;;;;;;13.90;6.05;;;10.70;90.30;;;;;;4955867;28;20035;-77
2023/12/21 10:27:21;;;;;;;15.35;6.78;;;10.80;90.10;;;;;;4955855;29;20043;-75
2023/12/21 10:29:55;;;;;;;12.02;5.55;;;10.90;90.70;;;;;;4955937;29;20043;-76
2023/12/21 10:32:21;;;;;;;11.95;6.65;;;10.90;90.00;;;;;;4938330;29;20121;-76
2023/12/21 10:34:48;;;;;;;16.02;7.55;;;10.90;90.00;;;;;;4938668;29;20054;-76
2023/12/21 10:37:16;;;;;;;11.80;6.15;;;10.90;89.10;;;;;;4955634;29;20501;-76
2023/12/21 10:39:42;;;;;;;16.98;7.32;;;10.80;87.70;;;;;;4955543;29;20044;-75
2023/12/21 10:42:09;;;;;;;15.52;5.40;;;10.90;88.40;;;;;;4955689;28;20106;-75
2023/12/21 10:44:35;;;;;;;11.80;4.90;;;11.00;88.10;;;;;;4955421;29;20483;-77
2023/12/21 10:47:01;;;;;;;12.07;6.00;;;10.90;86.90;;;;;;4955550;29;20035;-75
2023/12/21 10:49:28;;;;;;;10.20;4.53;;;10.90;87.30;;;;;;4955328;28;20034;-77
2023/12/21 10:51:55;;;;;;;10.18;5.20;;;11.00;87.40;;;;;;4955387;28;20031;-75
2023/12/21 10:54:25;;;;;;;11.73;5.43;;;11.00;88.30;;;;;;4955477;29;20026;-76
2023/12/21 10:56:52;;;;;;;10.40;4.38;;;11.10;87.80;;;;;;4955392;28;20038;-76
2023/12/21 10:59:20;;;;;;;14.55;6.30;;;11.20;87.20;;;;;;4955274;29;20067;-75
2023/12/21 11:01:46;;;;;;;12.82;5.57;;;11.20;86.30;;;;;;4954343;28;20035;-76
2023/12/21 11:04:18;;;;;;;17.92;8.07;;;11.20;85.80;;;;;;4954765;28;20399;-76
2023/12/21 11:06:46;;;;;;;9.07;4.13;;;11.20;86.20;;;;;;4954763;29;20039;-76
2023/12/21 11:09:18;;;;;;;10.93;2.95;;;11.10;84.70;;;;;;4954846;28;20070;-75
2023/12/21 11:11:45;;;;;;;17.15;9.32;;;11.20;85.10;;;;;;4954814;28;20031;-76
2023/12/21 11:14:12;;;;;;;15.05;7.80;;;11.30;86.00;;;;;;4954656;28;20491;-76
2023/12/21 11:16:44;;;;;;;10.90;4.60;;;11.30;85.70;;;;;;4954289;28;20035;-75
2023/12/21 11:19:15;;;;;;;11.32;5.80;;;11.30;84.10;;;;;;4954722;29;20024;-76
2023/12/21 11:21:41;;;;;;;17.77;6.57;;;11.40;85.10;;;;;;4937676;29;20039;-75
2023/12/21 11:24:09;;;;;;;8.63;3.70;;;11.30;84.10;;;;;;4954647;28;20027;-75
2023/12/21 11:26:39;;;;;;;12.65;5.25;;;11.30;83.70;;;;;;4942498;29;20491;-75
2023/12/21 11:29:10;;;;;;;9.90;4.45;;;11.30;83.50;;;;;;4937291;29;20376;-76
2023/12/21 11:31:40;;;;;;;8.82;3.80;;;11.30;84.10;;;;;;4954778;29;20031;-76
2023/12/21 11:34:21;;;;;;;12.68;5.07;;;11.40;82.30;;;;;;4937296;29;20117;-76
2023/12/21 11:36:58;;;;;;;10.07;5.03;;;11.40;82.20;;;;;;4954395;29;20145;-77
2023/12/21 11:39:27;;;;;;;27.65;7.88;;;11.40;82.80;;;;;;4954467;29;20035;-76
2023/12/21 11:41:58;;;;;;;8.50;3.72;;;11.50;84.20;;;;;;4954374;28;20027;-75
2023/12/21 11:44:35;;;;;;;7.68;3.47;;;11.40;82.80;;;;;;4954354;29;20480;-75
2023/12/21 11:47:01;;;;;;;12.73;6.45;;;11.50;82.20;;;;;;4954386;29;20094;-77
2023/12/21 11:49:27;;;;;;;14.43;6.68;;;11.50;82.20;;;;;;4954251;28;20494;-75
2023/12/21 11:51:53;;;;;;;11.38;4.88;;;11.50;82.60;;;;;;4954463;29;20054;-78
2023/12/21 11:54:22;;;;;;;14.60;7.15;;;11.50;80.80;;;;;;4954313;29;20124;-75
2023/12/21 11:56:49;;;;;;;19.98;10.00;;;11.60;82.20;;;;;;4937390;28;20099;-78
2023/12/21 11:59:16;;;;;;;15.73;7.65;;;11.60;82.00;;;;;;4937082;29;20055;-78
2023/12/21 12:01:50;;;;;;;11.82;5.65;;;11.60;83.20;;;;;;4953745;29;20083;-76
2023/12/21 12:04:16;;;;;;;10.30;4.43;;;11.60;82.30;;;;;;4954130;28;20023;-76
2023/12/21 12:06:46;;;;;;;12.15;5.55;;;11.60;81.30;;;;;;4936822;29;20046;-77
2023/12/21 12:09:15;;;;;;;17.03;5.37;;;11.60;81.30;;;;;;4954215;29;20031;-77
2023/12/21 12:11:41;;;;;;;13.68;5.65;;;11.60;81.50;;;;;;4953835;28;20046;-75
2023/12/21 12:14:09;;;;;;;8.45;4.25;;;11.50;83.60;;;;;;4954415;29;20110;-75
2023/12/21 12:16:36;;;;;;;11.30;4.90;;;11.60;83.40;;;;;;4953982;29;20031;-74
2023/12/21 12:19:03;;;;;;;9.63;4.72;;;11.60;81.80;;;;;;4954222;29;20397;-77
2023/12/21 12:21:30;;;;;;;12.30;5.03;;;11.60;81.40;;;;;;4954041;29;20039;-76
2023/12/21 12:23:56;;;;;;;12.20;5.13;;;11.60;80.90;;;;;;4953763;29;20395;-76
2023/12/21 12:26:22;;;;;;;12.65;5.88;;;11.60;81.20;;;;;;4954199;28;20015;-76
2023/12/21 12:28:50;;;;;;;17.40;8.10;;;11.60;80.90;;;;;;4936669;29;20399;-76
2023/12/21 12:31:17;;;;;;;17.60;7.38;;;11.60;81.40;;;;;;4953959;28;20011;-76
2023/12/21 12:33:43;;;;;;;8.88;4.68;;;11.60;82.60;;;;;;4953523;28;20039;-76